createdAt,value
2023-03-26T00:02:17.848Z,25.08
2023-03-26T00:06:17.736Z,25.07
2023-03-26T00:10:17.858Z,25.05
2023-03-26T00:14:18.038Z,25.03
2023-03-26T00:18:17.913Z,25.01
2023-03-26T00:22:18.001Z,25.01
2023-03-26T00:26:18.015Z,25.00
2023-03-26T00:30:18.057Z,24.99
2023-03-26T00:34:17.968Z,24.98
2023-03-26T00:38:18.005Z,24.97
2023-03-26T00:42:17.976Z,24.97
2023-03-26T00:46:18.038Z,24.96
2023-03-26T00:50:17.939Z,24.95
2023-03-26T00:54:17.951Z,24.94
2023-03-26T00:58:17.890Z,24.94
2023-03-26T01:02:17.943Z,24.93
2023-03-26T01:06:18.290Z,24.92
2023-03-26T01:10:17.915Z,24.92
2023-03-26T01:14:17.891Z,24.90
2023-03-26T01:18:17.924Z,24.89
2023-03-26T01:22:17.890Z,24.88
2023-03-26T01:26:17.914Z,24.87
2023-03-26T01:30:17.943Z,24.87
2023-03-26T01:34:17.966Z,24.86
2023-03-26T01:38:17.944Z,24.85
2023-03-26T01:42:17.981Z,24.85
2023-03-26T01:46:18.015Z,24.84
2023-03-26T01:50:17.968Z,24.83
2023-03-26T01:54:18.041Z,24.83
2023-03-26T01:58:18.037Z,24.81
2023-03-26T02:02:18.153Z,24.80
2023-03-26T02:06:18.146Z,24.81
2023-03-26T02:10:18.202Z,24.80
2023-03-26T02:14:18.231Z,24.79
2023-03-26T02:18:18.307Z,24.78
2023-03-26T02:22:18.361Z,24.77
2023-03-26T02:26:18.359Z,24.76
2023-03-26T02:30:18.411Z,24.76
2023-03-26T02:34:18.541Z,24.75
2023-03-26T02:38:18.512Z,24.75
2023-03-26T02:42:18.580Z,24.74
2023-03-26T02:46:18.713Z,24.74
2023-03-26T02:50:18.680Z,24.73
2023-03-26T02:54:18.779Z,24.72
2023-03-26T02:58:18.817Z,24.71
2023-03-26T03:02:18.908Z,24.71
2023-03-26T03:06:19.021Z,24.69
2023-03-26T03:10:18.990Z,24.69
2023-03-26T03:14:19.089Z,24.68
2023-03-26T03:18:19.144Z,24.67
2023-03-26T03:22:19.248Z,24.66
2023-03-26T03:26:19.338Z,24.65
2023-03-26T03:30:19.374Z,24.65
2023-03-26T03:34:19.490Z,24.64
2023-03-26T03:38:19.688Z,24.63
2023-03-26T03:42:19.636Z,24.63
2023-03-26T03:46:19.747Z,24.62
2023-03-26T03:50:19.811Z,24.61
2023-03-26T03:54:19.908Z,24.60
2023-03-26T03:58:19.977Z,24.60
2023-03-26T04:02:20.096Z,24.59
2023-03-26T04:06:20.134Z,24.58
2023-03-26T04:10:20.269Z,24.58
2023-03-26T04:14:20.339Z,24.57
2023-03-26T04:18:20.466Z,24.56
2023-03-26T04:22:20.586Z,24.55
2023-03-26T04:26:20.673Z,24.54
2023-03-26T04:30:20.799Z,24.54
2023-03-26T04:34:20.926Z,24.53
2023-03-26T04:38:21.053Z,24.52
2023-03-26T04:42:21.187Z,24.51
2023-03-26T04:46:21.338Z,24.50
2023-03-26T04:50:21.443Z,24.50
2023-03-26T04:54:21.580Z,24.50
2023-03-26T04:58:21.759Z,24.49
2023-03-26T05:02:22.983Z,24.48
2023-03-26T05:06:21.998Z,24.47
2023-03-26T05:10:22.199Z,24.47
2023-03-26T05:14:22.323Z,24.46
2023-03-26T05:18:22.470Z,24.46
2023-03-26T05:22:22.630Z,24.44
2023-03-26T05:26:22.883Z,24.45
2023-03-26T05:30:22.992Z,24.44
2023-03-26T05:34:23.113Z,24.44
2023-03-26T05:38:23.248Z,24.43
2023-03-26T05:42:23.419Z,24.43
2023-03-26T05:46:23.623Z,24.43
2023-03-26T05:50:23.692Z,24.42
2023-03-26T05:54:24.549Z,24.41
2023-03-26T05:58:24.565Z,24.42
2023-03-26T06:02:24.563Z,24.42
2023-03-26T06:06:24.527Z,24.43
2023-03-26T06:10:24.619Z,24.42
2023-03-26T06:14:24.883Z,24.41
2023-03-26T06:18:24.991Z,24.42
2023-03-26T06:22:25.152Z,24.43
2023-03-26T06:26:25.185Z,24.43
2023-03-26T06:30:25.410Z,24.45
2023-03-26T06:34:26.088Z,24.44
2023-03-26T06:38:25.792Z,24.45
2023-03-26T06:43:08.267Z,24.46
2023-03-26T06:46:26.797Z,24.47
2023-03-26T06:50:25.699Z,24.48
2023-03-26T06:54:25.665Z,24.48
2023-03-26T06:58:25.786Z,24.49
2023-03-26T07:02:25.930Z,24.49
2023-03-26T07:06:26.016Z,24.49
2023-03-26T07:10:26.079Z,24.51
2023-03-26T07:14:26.216Z,24.52
2023-03-26T07:18:26.267Z,24.57
2023-03-26T07:22:26.379Z,24.60
2023-03-26T07:26:26.418Z,24.62
2023-03-26T07:30:26.470Z,24.62
2023-03-26T07:34:26.505Z,24.62
2023-03-26T07:38:26.579Z,24.60
2023-03-26T07:42:26.616Z,24.59
2023-03-26T07:46:26.680Z,24.59
2023-03-26T07:50:26.709Z,24.61
2023-03-26T07:54:26.794Z,24.62
2023-03-26T07:58:26.840Z,24.65
2023-03-26T08:02:26.880Z,24.67
2023-03-26T08:06:26.878Z,24.71
2023-03-26T08:10:26.905Z,24.74
2023-03-26T08:14:26.981Z,24.74
2023-03-26T08:18:26.982Z,24.73
2023-03-26T08:22:26.930Z,24.71
2023-03-26T08:26:26.976Z,24.71
2023-03-26T08:30:26.985Z,24.70
2023-03-26T08:34:27.004Z,24.74
2023-03-26T08:38:27.015Z,24.76
2023-03-26T08:42:26.946Z,24.79
2023-03-26T08:46:26.979Z,24.82
2023-03-26T08:50:26.992Z,24.81
2023-03-26T08:54:26.884Z,24.81
2023-03-26T08:58:26.917Z,24.83
2023-03-26T09:02:26.883Z,24.85
2023-03-26T09:06:26.876Z,24.85
2023-03-26T09:10:26.835Z,24.83
2023-03-26T09:14:26.841Z,24.84
2023-03-26T09:18:26.851Z,24.83
2023-03-26T09:22:26.813Z,24.82
2023-03-26T09:26:26.756Z,24.81
2023-03-26T09:30:26.758Z,24.81
2023-03-26T09:34:26.788Z,24.82
2023-03-26T09:38:26.778Z,24.84
2023-03-26T09:42:26.770Z,24.84
2023-03-26T09:46:26.728Z,24.86
2023-03-26T09:50:26.793Z,24.87
2023-03-26T09:54:26.890Z,24.88
2023-03-26T09:58:27.009Z,24.91
2023-03-26T10:02:46.314Z,24.95
2023-03-26T10:06:28.113Z,24.96
2023-03-26T10:10:27.106Z,24.96
2023-03-26T10:14:27.086Z,24.96
2023-03-26T10:18:29.951Z,24.96
2023-03-26T10:22:27.254Z,24.98
2023-03-26T10:26:27.218Z,24.98
2023-03-26T10:30:27.265Z,24.98
2023-03-26T10:34:28.919Z,24.98
2023-03-26T10:38:27.563Z,24.96
2023-03-26T10:42:27.320Z,24.95
2023-03-26T10:46:27.367Z,24.95
2023-03-26T10:50:27.274Z,24.95
2023-03-26T10:54:27.196Z,24.96
2023-03-26T10:58:27.180Z,24.96
2023-03-26T11:02:29.919Z,24.97
2023-03-26T11:06:27.137Z,24.98
2023-03-26T11:10:27.068Z,25.00
2023-03-26T11:14:34.421Z,25.02
2023-03-26T11:18:28.089Z,25.05
2023-03-26T11:22:26.984Z,25.08
2023-03-26T11:26:26.970Z,25.11
2023-03-26T11:30:26.930Z,25.12
2023-03-26T11:34:26.922Z,25.13
2023-03-26T11:38:26.892Z,25.15
2023-03-26T11:42:26.809Z,25.19
2023-03-26T11:46:26.846Z,25.22
2023-03-26T11:50:26.769Z,25.23
2023-03-26T11:54:26.697Z,25.23
2023-03-26T11:58:26.674Z,25.22
2023-03-26T12:02:26.719Z,25.22
2023-03-26T12:06:27.194Z,25.20
2023-03-26T12:10:26.827Z,25.19
2023-03-26T12:14:27.046Z,25.18
2023-03-26T12:18:27.220Z,25.17
2023-03-26T12:22:27.480Z,25.16
2023-03-26T12:26:27.620Z,25.14
2023-03-26T12:30:27.817Z,25.14
2023-03-26T12:34:28.007Z,25.13
2023-03-26T12:38:28.288Z,25.12
2023-03-26T12:44:49.665Z,25.11
2023-03-26T12:47:55.627Z,25.09
2023-03-26T12:50:34.523Z,25.08
2023-03-26T12:54:29.377Z,25.08
2023-03-26T12:58:28.273Z,25.06
2023-03-26T13:02:28.378Z,25.05
2023-03-26T13:06:28.212Z,25.04
2023-03-26T13:10:28.182Z,25.04
2023-03-26T13:14:28.109Z,25.02
2023-03-26T13:18:28.383Z,25.01
2023-03-26T13:22:28.527Z,24.99
2023-03-26T13:26:28.476Z,24.98
2023-03-26T13:30:28.492Z,24.97
2023-03-26T13:34:28.441Z,24.96
2023-03-26T13:38:28.427Z,24.99
2023-03-26T13:42:28.367Z,24.99
2023-03-26T13:46:28.336Z,24.99
2023-03-26T13:50:28.308Z,24.98
2023-03-26T13:54:28.245Z,24.97
2023-03-26T13:58:34.451Z,24.96
2023-03-26T14:02:29.205Z,24.96
2023-03-26T14:06:28.137Z,24.95
2023-03-26T14:10:28.084Z,24.95
2023-03-26T14:14:28.055Z,24.93
2023-03-26T14:18:28.061Z,24.92
2023-03-26T14:22:28.011Z,24.91
2023-03-26T14:26:28.018Z,24.91
2023-03-26T14:30:28.070Z,24.91
2023-03-26T14:34:28.080Z,24.90
2023-03-26T14:38:28.104Z,24.90
2023-03-26T14:42:28.028Z,24.89
2023-03-26T14:46:28.117Z,24.89
2023-03-26T14:50:28.083Z,24.88
2023-03-26T14:54:28.079Z,24.87
2023-03-26T14:58:28.075Z,24.86
2023-03-26T15:02:28.705Z,24.84
2023-03-26T15:06:28.093Z,24.84
2023-03-26T15:10:28.075Z,24.84
2023-03-26T15:14:28.083Z,24.83
2023-03-26T15:18:28.073Z,24.83
2023-03-26T15:22:28.092Z,24.82
2023-03-26T15:26:28.023Z,24.81
2023-03-26T15:30:27.971Z,24.81
2023-03-26T15:34:28.004Z,24.80
2023-03-26T15:38:28.006Z,24.80
2023-03-26T15:42:28.021Z,24.80
2023-03-26T15:46:28.028Z,24.79
2023-03-26T15:50:28.017Z,24.78
2023-03-26T15:54:28.043Z,24.78
2023-03-26T15:58:28.048Z,24.78
2023-03-26T16:02:28.205Z,24.77
2023-03-26T16:06:28.277Z,24.77
2023-03-26T16:10:28.107Z,24.75
2023-03-26T16:14:28.091Z,24.75
2023-03-26T16:18:28.250Z,24.75
2023-03-26T16:22:28.345Z,24.74
2023-03-26T16:26:28.384Z,24.73
2023-03-26T16:30:28.359Z,24.73
2023-03-26T16:34:28.326Z,24.72
2023-03-26T16:38:28.330Z,24.72
2023-03-26T16:42:28.407Z,24.71
2023-03-26T16:46:28.250Z,24.69
2023-03-26T16:50:28.199Z,24.68
2023-03-26T16:54:28.154Z,24.67
2023-03-26T16:58:28.220Z,24.68
2023-03-26T17:02:28.168Z,24.66
2023-03-26T17:06:28.022Z,24.66
2023-03-26T17:10:28.060Z,24.65
2023-03-26T17:14:28.137Z,24.65
2023-03-26T17:18:28.210Z,24.63
2023-03-26T17:22:28.242Z,24.63
2023-03-26T17:26:28.305Z,24.62
2023-03-26T17:30:28.343Z,24.62
2023-03-26T17:34:28.412Z,24.62
2023-03-26T17:38:28.527Z,24.60
2023-03-26T17:42:28.556Z,24.60
2023-03-26T17:46:28.723Z,24.59
2023-03-26T17:50:28.639Z,24.58
2023-03-26T17:54:28.733Z,24.57
2023-03-26T17:58:28.812Z,24.57
2023-03-26T18:02:28.956Z,24.57
2023-03-26T18:06:28.933Z,24.56
2023-03-26T18:10:29.068Z,24.54
2023-03-26T18:14:29.122Z,24.53
2023-03-26T18:18:29.198Z,24.52
2023-03-26T18:22:29.269Z,24.52
2023-03-26T18:26:29.301Z,24.52
2023-03-26T18:30:29.415Z,24.50
2023-03-26T18:34:29.536Z,24.50
2023-03-26T18:38:35.506Z,24.50
2023-03-26T18:42:30.576Z,24.48
2023-03-26T18:46:29.584Z,24.48
2023-03-26T18:50:29.545Z,24.48
2023-03-26T18:54:29.469Z,24.47
2023-03-26T18:58:29.491Z,24.46
2023-03-26T19:02:29.786Z,24.46
2023-03-26T19:06:29.731Z,24.46
2023-03-26T19:10:29.840Z,24.44
2023-03-26T19:14:30.197Z,24.44
2023-03-26T19:18:30.080Z,24.43
2023-03-26T19:22:30.175Z,24.42
2023-03-26T19:26:30.319Z,24.42
2023-03-26T19:30:30.432Z,24.41
2023-03-26T19:34:30.552Z,24.39
2023-03-26T19:38:30.607Z,24.39
2023-03-26T19:46:31.785Z,24.37
2023-03-26T19:50:30.688Z,24.37
2023-03-26T19:51:18.120Z,24.38
2023-03-26T19:54:30.672Z,24.36
2023-03-26T19:58:30.736Z,24.35
2023-03-26T20:02:31.019Z,24.35
2023-03-26T20:06:42.336Z,24.35
2023-03-26T20:10:32.244Z,24.33
2023-03-26T20:14:31.005Z,24.33
2023-03-26T20:18:30.947Z,24.33
2023-03-26T20:22:31.067Z,24.32
2023-03-26T20:26:31.172Z,24.32
2023-03-26T20:30:37.332Z,24.32
2023-03-26T20:34:32.286Z,24.31
2023-03-26T20:38:39.063Z,24.31
2023-03-26T20:42:32.248Z,24.30
2023-03-26T20:46:31.907Z,24.29
2023-03-26T20:50:31.623Z,24.28
2023-03-26T20:54:31.372Z,24.27
2023-03-26T20:58:32.424Z,24.27
2023-03-26T21:02:31.790Z,24.27
2023-03-26T21:06:31.879Z,24.26
2023-03-26T21:10:31.981Z,24.25
2023-03-26T21:14:32.174Z,24.24
2023-03-26T21:18:32.400Z,24.23
2023-03-26T21:22:32.507Z,24.23
2023-03-26T21:26:32.674Z,24.22
2023-03-26T21:30:32.876Z,24.22
2023-03-26T21:34:33.523Z,24.21
2023-03-26T21:38:33.197Z,24.21
2023-03-26T21:42:33.457Z,24.21
2023-03-26T21:46:33.600Z,24.19
2023-03-26T21:50:33.821Z,24.18
2023-03-26T21:54:34.031Z,24.18
2023-03-26T21:58:34.187Z,24.18
2023-03-26T22:02:34.438Z,24.18
2023-03-26T22:06:34.581Z,24.17
2023-03-26T22:10:34.758Z,24.16
2023-03-26T22:14:34.988Z,24.16
2023-03-26T22:18:35.154Z,24.15
2023-03-26T22:22:35.811Z,24.15
2023-03-26T22:26:35.576Z,24.14
2023-03-26T22:30:35.806Z,24.14
2023-03-26T22:34:35.785Z,24.13
2023-03-26T22:38:35.787Z,24.12
2023-03-26T22:42:35.718Z,24.12
2023-03-26T22:46:35.688Z,24.11
2023-03-26T22:50:35.683Z,24.10
2023-03-26T22:54:35.619Z,24.10
2023-03-26T22:58:35.545Z,24.09
2023-03-26T23:02:35.605Z,24.09
2023-03-26T23:06:35.508Z,24.08
2023-03-26T23:10:35.684Z,24.08
2023-03-26T23:14:35.553Z,24.07
2023-03-26T23:18:35.462Z,24.05
2023-03-26T23:22:35.429Z,24.05
2023-03-26T23:26:47.833Z,24.05
2023-03-26T23:30:36.379Z,24.04
2023-03-26T23:34:35.406Z,24.04
2023-03-26T23:38:43.779Z,24.03
2023-03-26T23:42:36.300Z,24.03
2023-03-26T23:46:35.248Z,24.02
2023-03-26T23:50:35.439Z,24.02
2023-03-26T23:54:35.462Z,24.02
2023-03-26T23:58:35.338Z,24.01
